Time;durP1;ratioP1;P1;durP2;ratioP2;P2;SDS_P1;SDS_P2;PMS_P1;PMS_P2;Temp;Humidity;BMP_temperature;BMP_pressure;BME280_temperature;BME280_humidity;BME280_pressure;Samples;Min_cycle;Max_cycle;Signal;HPM_P1;HPM_P2
2022/01/08 00:02:26;;;;;;;0.80;0.55;;;;;;;5.49;0.00;60892.56;4851356;28;20033;-86
2022/01/08 00:05:05;;;;;;;0.68;0.60;;;;;;;4.51;0.00;60892.56;4864321;28;20479;-85
2022/01/08 00:07:45;;;;;;;0.88;0.63;;;;;;;-145.06;0.00;60892.56;4870677;28;20479;-86
2022/01/08 00:10:24;;;;;;;0.93;0.70;;;;;;;-145.06;0.00;60892.56;4854779;28;20041;-86
2022/01/08 00:13:04;;;;;;;1.63;0.73;;;;;;;5.49;0.00;60892.56;4858186;28;20029;-86
2022/01/08 00:15:43;;;;;;;1.48;0.73;;;;;;;5.49;0.00;60892.56;4851283;28;20033;-86
2022/01/08 00:18:23;;;;;;;0.65;0.60;;;;;;;-145.06;0.00;60892.56;4855481;28;20037;-86
2022/01/08 00:21:02;;;;;;;1.65;0.70;;;;;;;-145.06;0.00;60892.56;4861393;28;20026;-86
2022/01/08 00:23:41;;;;;;;1.13;0.57;;;;;;;4.84;0.00;60892.56;4846815;28;20025;-85
2022/01/08 00:26:20;;;;;;;0.70;0.60;;;;;;;10.68;0.00;60892.56;4857325;28;20591;-86
2022/01/08 00:28:59;;;;;;;2.13;0.85;;;;;;;5.49;0.00;60892.56;4855517;28;22422;-86
2022/01/08 00:31:40;;;;;;;0.70;0.57;;;;;;;-145.06;0.00;60892.56;4851914;28;20049;-86
2022/01/08 00:34:19;;;;;;;1.00;0.55;;;;;;;10.68;0.00;60892.56;4853113;28;20284;-88
2022/01/08 00:36:58;;;;;;;1.13;0.60;;;;;;;-145.06;0.00;60892.56;4854845;28;20033;-86
2022/01/08 00:39:37;;;;;;;1.38;0.65;;;;;;;10.68;0.00;60892.56;4854034;28;20112;-85
2022/01/08 00:42:16;;;;;;;1.63;0.70;;;;;;;5.49;0.00;60892.56;4852311;28;20029;-86
2022/01/08 00:44:55;;;;;;;1.77;0.77;;;;;;;-145.06;0.00;60892.56;4858009;28;20030;-86
2022/01/08 00:47:34;;;;;;;1.83;0.82;;;;;;;-145.06;0.00;60892.56;4855540;28;20260;-85
2022/01/08 00:50:13;;;;;;;0.77;0.63;;;;;;;5.49;0.00;60892.56;4852858;28;20029;-86
2022/01/08 00:52:52;;;;;;;1.37;0.50;;;;;;;-145.06;0.00;60892.56;4852136;28;20041;-86
2022/01/08 00:55:30;;;;;;;0.73;0.43;;;;;;;5.49;0.00;60892.56;4853520;28;20033;-86
2022/01/08 00:58:10;;;;;;;1.08;0.63;;;;;;;5.49;0.00;60892.56;4853078;28;20041;-86
2022/01/08 01:00:48;;;;;;;1.27;0.60;;;;;;;-145.06;0.00;60892.56;4852190;28;20042;-86
2022/01/08 01:03:27;;;;;;;1.03;0.63;;;;;;;-145.06;0.00;60892.56;4855398;28;20359;-86
2022/01/08 01:06:06;;;;;;;1.33;0.60;;;;;;;-145.06;0.00;60892.56;4855224;28;20267;-86
2022/01/08 01:08:45;;;;;;;1.35;0.63;;;;;;;-145.06;0.00;60892.56;4853637;28;20033;-85
2022/01/08 01:11:24;;;;;;;2.28;1.00;;;;;;;5.49;0.00;60892.56;4856117;28;20030;-86
2022/01/08 01:14:04;;;;;;;1.10;0.80;;;;;;;-145.06;0.00;60892.56;4853152;28;20487;-85
2022/01/08 01:16:43;;;;;;;1.55;0.70;;;;;;;-145.06;0.00;60892.56;4853026;28;20037;-87
2022/01/08 01:19:22;;;;;;;1.07;0.70;;;;;;;5.49;0.00;60892.56;4854502;28;20033;-86
2022/01/08 01:22:02;;;;;;;0.75;0.75;;;;;;;-145.06;0.00;60892.56;4855077;28;20276;-86
2022/01/08 01:24:42;;;;;;;1.70;0.80;;;;;;;5.49;0.00;60892.56;4852123;28;20729;-86
2022/01/08 01:30:14;;;;;;;0.88;0.52;;;;;;;-145.06;0.00;60892.56;4852311;28;20542;-87
2022/01/08 01:47:30;;;;;;;;;;;;;;;-145.06;0.00;60892.56;4846947;28;20033;-87
2022/01/08 01:50:10;;;;;;;0.55;0.55;;;;;;;-145.06;0.00;60892.56;4858239;28;19952;-86
2022/01/08 01:52:49;;;;;;;1.42;0.50;;;;;;;-145.06;0.00;60892.56;4852948;28;20030;-86
2022/01/08 01:55:28;;;;;;;0.57;0.50;;;;;;;-145.06;0.00;60892.56;4853127;28;20029;-87
2022/01/08 01:58:07;;;;;;;0.75;0.50;;;;;;;-145.06;0.00;60892.56;4853352;28;20041;-86
2022/01/08 02:00:49;;;;;;;1.58;0.65;;;;;;;-145.06;0.00;60892.56;4851113;28;20025;-86
2022/01/08 02:03:27;;;;;;;0.63;0.60;;;;;;;-145.06;0.00;60892.56;4857766;28;20068;-85
2022/01/08 02:06:07;;;;;;;3.75;0.57;;;;;;;-145.06;0.00;60892.56;4851969;28;20314;-86
2022/01/08 02:08:47;;;;;;;1.00;0.60;;;;;;;-145.06;0.00;60892.56;4850558;28;20899;-86
2022/01/08 02:11:26;;;;;;;1.00;0.70;;;;;;;-145.06;0.00;60892.56;4851010;28;20112;-85
2022/01/08 02:14:05;;;;;;;1.60;0.90;;;;;;;-145.06;0.00;60892.56;4852025;28;20041;-86
2022/01/08 02:16:44;;;;;;;1.25;0.70;;;;;;;-145.06;0.00;60892.56;4854220;28;20112;-86
2022/01/08 02:19:24;;;;;;;0.93;0.77;;;;;;;-145.06;0.00;60892.56;4853487;28;22066;-86
2022/01/08 02:22:04;;;;;;;0.88;0.68;;;;;;;-145.06;0.00;60892.56;4853942;28;20033;-86
2022/01/08 02:24:44;;;;;;;0.98;0.70;;;;;;;-145.06;0.00;60892.56;4853938;28;20025;-86
2022/01/08 02:27:24;;;;;;;1.45;0.63;;;;;;;-145.06;0.00;60892.56;4849402;28;20045;-85
2022/01/08 02:30:03;;;;;;;1.50;0.68;;;;;;;-145.06;0.00;60892.56;4855745;28;20041;-86
2022/01/08 02:32:44;;;;;;;;;;;;;;;-145.06;0.00;60892.56;4853545;28;20037;-85
2022/01/08 02:35:24;;;;;;;1.02;0.93;;;;;;;-145.06;0.00;60892.56;4852342;28;19917;-87
2022/01/08 02:38:03;;;;;;;1.90;1.15;;;;;;;-145.06;0.00;60892.56;4863177;28;20037;-86
2022/01/08 02:40:51;;;;;;;1.67;1.33;;;;;;;-145.06;0.00;60892.56;4852188;28;20041;-86
2022/01/08 02:43:33;;;;;;;2.63;1.30;;;;;;;-145.06;0.00;60892.56;4852798;28;20064;-85
2022/01/08 02:46:12;;;;;;;2.08;1.40;;;;;;;-145.06;0.00;60892.56;4852172;28;20379;-86
2022/01/08 02:48:51;;;;;;;4.03;1.63;;;;;;;-145.06;0.00;60892.56;4853181;28;20593;-84
2022/01/08 02:51:33;;;;;;;4.82;2.15;;;;;;;-145.06;0.00;60892.56;4849312;28;20025;-86
2022/01/08 02:54:12;;;;;;;2.92;1.77;;;;;;;-145.06;0.00;60892.56;4850480;28;20037;-86
2022/01/08 02:56:51;;;;;;;2.00;1.80;;;;;;;-145.06;0.00;60892.56;4851196;28;20037;-86
2022/01/08 02:59:32;;;;;;;4.10;2.47;;;;;;;-145.06;0.00;60892.56;4847130;28;20487;-85
2022/01/08 03:02:11;;;;;;;4.88;3.17;;;;;;;-145.06;0.00;60892.56;4854723;28;20124;-86
2022/01/08 03:04:52;;;;;;;4.15;2.85;;;;;;;-145.06;0.00;60892.56;4854050;28;20368;-86
2022/01/08 03:07:31;;;;;;;7.32;3.70;;;;;;;10.68;0.00;60892.56;4848556;28;20483;-85
2022/01/08 03:10:15;;;;;;;5.93;4.30;;;;;;;187.52;0.00;60892.56;4850906;28;20037;-86
2022/01/08 03:12:54;;;;;;;10.75;5.35;;;;;;;10.68;0.00;60892.56;4852616;28;20033;-86
2022/01/08 03:15:35;;;;;;;10.23;6.20;;;;;;;-145.06;0.00;60892.56;4849038;28;20061;-87
2022/01/08 03:18:16;;;;;;;11.43;6.13;;;;;;;-145.06;0.00;60892.56;4853782;28;20288;-86
2022/01/08 03:21:11;;;;;;;10.68;7.20;;;;;;;4.19;0.00;60892.56;4849276;28;20029;-86
2022/01/08 03:23:57;;;;;;;9.48;6.32;;;;;;;-145.06;0.00;60892.56;4844094;28;20030;-86
2022/01/08 03:26:37;;;;;;;10.20;6.47;;;;;;;-145.06;0.00;60892.56;4849202;28;20105;-87
2022/01/08 03:29:15;;;;;;;;;;;;;;;2.89;0.00;60892.56;4850909;28;20025;-87
2022/01/08 03:31:55;;;;;;;10.07;6.43;;;;;;;-145.06;0.00;60892.56;4880785;28;19917;-86
2022/01/08 03:34:34;;;;;;;8.00;5.80;;;;;;;-145.06;0.00;60892.56;4854680;28;20615;-86
2022/01/08 03:37:13;;;;;;;7.53;5.32;;;;;;;-145.06;0.00;60892.56;4849062;28;20037;-87
2022/01/08 03:39:52;;;;;;;7.60;5.60;;;;;;;-145.06;0.00;60892.56;4852134;28;20033;-86
2022/01/08 03:42:30;;;;;;;8.50;5.80;;;;;;;-145.06;0.00;60892.56;4853574;28;20280;-86
2022/01/08 03:45:10;;;;;;;9.60;5.33;;;;;;;-145.06;0.00;60892.56;4848388;28;20475;-85
2022/01/08 03:50:28;;;;;;;9.67;6.07;;;;;;;187.52;0.00;60892.56;4856646;28;20037;-86
2022/01/08 03:53:07;;;;;;;10.77;6.22;;;;;;;4.19;0.00;60892.56;4854019;28;20502;-85
2022/01/08 03:55:46;;;;;;;9.80;6.03;;;;;;;187.52;0.00;60892.56;4852023;28;20069;-86
2022/01/08 03:58:25;;;;;;;7.47;5.30;;;;;;;2.97;0.00;60892.56;4856364;28;20064;-86
2022/01/08 04:01:04;;;;;;;10.20;6.10;;;;;;;-145.06;0.00;60892.56;4857655;28;20034;-86
2022/01/08 04:03:43;;;;;;;10.77;6.18;;;;;;;-145.06;0.00;60892.56;4872669;28;20033;-85
2022/01/08 04:06:22;;;;;;;9.00;5.30;;;;;;;21.08;0.00;60892.56;4854380;28;20033;-87
2022/01/08 04:09:02;;;;;;;7.80;4.95;;;;;;;21.08;0.00;60892.56;4865692;28;20033;-86
2022/01/08 04:11:41;;;;;;;;;;;;;;;-145.06;0.00;60892.56;4852756;28;20041;-87
2022/01/08 04:14:20;;;;;;;9.55;5.55;;;;;;;10.68;0.00;60892.56;4852910;28;19960;-86
2022/01/08 04:17:00;;;;;;;9.63;6.40;;;;;;;-145.06;0.00;60892.56;4866241;28;20065;-86
2022/01/08 04:19:39;;;;;;;8.05;5.47;;;;;;;10.68;0.00;60892.56;4854310;28;20033;-86
2022/01/08 04:22:18;;;;;;;11.57;6.72;;;;;;;-145.06;0.00;60892.56;4854531;28;20439;-86
2022/01/08 04:24:57;;;;;;;9.98;5.57;;;;;;;10.68;0.00;60892.56;4852825;28;20037;-85
2022/01/08 04:27:36;;;;;;;6.17;4.80;;;;;;;21.08;0.00;60892.56;4856792;28;20037;-86
2022/01/08 04:30:15;;;;;;;6.90;4.82;;;;;;;-145.06;0.00;60892.56;4854357;28;20300;-85
2022/01/08 04:32:54;;;;;;;7.22;4.88;;;;;;;10.68;0.00;60892.56;4853483;28;20076;-84
2022/01/08 04:35:33;;;;;;;5.77;4.07;;;;;;;-145.06;0.00;60892.56;4858780;28;20396;-87
2022/01/08 04:38:12;;;;;;;8.02;4.45;;;;;;;3.18;0.00;60892.56;4850142;28;20303;-86
2022/01/08 04:40:51;;;;;;;7.32;4.18;;;;;;;-145.06;0.00;60892.56;4850313;28;20045;-85
2022/01/08 04:43:30;;;;;;;7.80;4.22;;;;;;;-145.06;0.00;60892.56;4850236;28;20037;-85
2022/01/08 04:46:10;;;;;;;7.87;4.30;;;;;;;-145.06;0.00;60892.56;4855621;28;20033;-85
2022/01/08 04:48:49;;;;;;;6.43;4.18;;;;;;;-145.06;0.00;60892.56;4855622;28;20424;-85
2022/01/08 04:51:28;;;;;;;5.07;4.17;;;;;;;-145.06;0.00;60892.56;4867778;28;20813;-86
2022/01/08 04:54:07;;;;;;;6.47;3.90;;;;;;;-145.06;0.00;60892.56;4852818;28;20554;-87
2022/01/08 04:56:46;;;;;;;6.03;4.23;;;;;;;-145.06;0.00;60892.56;4855232;28;20363;-86
2022/01/08 04:59:25;;;;;;;6.27;3.90;;;;;;;-145.06;0.00;60892.56;4854043;28;20280;-86
2022/01/08 05:02:04;;;;;;;4.55;3.42;;;;;;;-145.06;0.00;60892.56;4865248;28;20108;-86
2022/01/08 05:04:43;;;;;;;6.43;3.42;;;;;;;-145.06;0.00;60892.56;4860612;28;20033;-85
2022/01/08 05:07:22;;;;;;;6.13;3.50;;;;;;;-145.06;0.00;60892.56;4855935;28;20041;-86
2022/01/08 05:10:03;;;;;;;4.93;3.08;;;;;;;-145.06;0.00;60892.56;4853582;28;20049;-85
2022/01/08 05:12:41;;;;;;;;;;;;;;;-145.06;0.00;60892.56;4853843;28;20072;-85
2022/01/08 05:15:20;;;;;;;5.05;2.80;;;;;;;-145.06;0.00;60892.56;4857193;28;19917;-86
2022/01/08 05:18:00;;;;;;;4.00;2.90;;;;;;;10.68;0.00;60892.56;4864936;28;20368;-87
2022/01/08 05:20:41;;;;;;;4.75;2.80;;;;;;;5.49;0.00;60892.56;4854195;28;20029;-86
2022/01/08 05:23:20;;;;;;;4.22;3.40;;;;;;;-145.06;0.00;60892.56;4854146;28;20065;-87
2022/01/08 05:26:00;;;;;;;6.00;3.75;;;;;;;10.68;0.00;60892.56;4854596;28;20041;-87
2022/01/08 05:28:39;;;;;;;4.90;2.95;;;;;;;10.68;0.00;60892.56;4847990;28;20478;-86
2022/01/08 05:31:21;;;;;;;5.00;3.25;;;;;;;21.08;0.00;60892.56;4847522;28;20037;-87
2022/01/08 05:34:00;;;;;;;5.20;3.25;;;;;;;10.68;0.00;60892.56;4854409;28;20364;-89
2022/01/08 05:36:39;;;;;;;4.15;2.92;;;;;;;187.52;0.00;60892.56;4849876;28;20036;-86
2022/01/08 05:39:18;;;;;;;4.78;3.20;;;;;;;-145.06;0.00;60892.56;4855352;28;20411;-88
2022/01/08 05:41:57;;;;;;;5.00;3.33;;;;;;;-145.06;0.00;60892.56;4867680;28;20121;-86
2022/01/08 05:44:36;;;;;;;4.97;3.00;;;;;;;2.89;0.00;60892.56;4853124;28;20120;-87
2022/01/08 05:47:15;;;;;;;5.30;3.75;;;;;;;-145.06;0.00;60892.56;4854566;28;20272;-87
2022/01/08 05:49:54;;;;;;;6.32;4.30;;;;;;;-145.06;0.00;60892.56;4851532;28;20041;-87
2022/01/08 05:52:33;;;;;;;7.43;4.13;;;;;;;-145.06;0.00;60892.56;4853396;28;20033;-85
2022/01/08 05:55:13;;;;;;;6.00;3.78;;;;;;;2.89;0.00;60892.56;4853404;28;20029;-87
2022/01/08 05:57:52;;;;;;;5.97;4.00;;;;;;;187.52;0.00;60892.56;4851952;28;20034;-87
2022/01/08 06:00:30;;;;;;;6.75;3.53;;;;;;;187.52;0.00;60892.56;4852239;28;20034;-87
2022/01/08 06:03:09;;;;;;;8.30;4.70;;;;;;;-145.06;0.00;60892.56;4866793;28;20038;-88
2022/01/08 06:05:48;;;;;;;5.93;4.15;;;;;;;2.77;0.00;60892.56;4851085;28;20416;-88
2022/01/08 06:08:27;;;;;;;5.88;3.83;;;;;;;-145.06;0.00;60892.56;4851071;28;20068;-88
2022/01/08 06:11:06;;;;;;;6.72;3.92;;;;;;;-145.06;0.00;60892.56;4857309;28;20037;-87
2022/01/08 06:13:45;;;;;;;7.20;4.50;;;;;;;2.72;0.00;60892.56;4850706;28;20037;-87
2022/01/08 06:16:24;;;;;;;11.80;4.82;;;;;;;2.72;0.00;60892.56;4852984;28;20263;-87
2022/01/08 06:19:07;;;;;;;6.65;4.45;;;;;;;2.72;0.00;60892.56;4845317;28;20081;-88
2022/01/08 06:21:46;;;;;;;8.40;4.90;;;;;;;-145.06;0.00;60892.56;4844678;28;20032;-86
2022/01/08 06:24:25;;;;;;;8.63;4.82;;;;;;;-145.06;0.00;60892.56;4843243;28;20042;-87
2022/01/08 06:27:04;;;;;;;7.97;4.18;;;;;;;-145.06;0.00;60892.56;4845579;28;20045;-86
2022/01/08 06:29:43;;;;;;;7.30;5.20;;;;;;;-145.06;0.00;60892.56;4841121;28;20037;-87
2022/01/08 06:32:22;;;;;;;10.33;4.83;;;;;;;-145.06;0.00;60892.56;4845009;28;20691;-86
2022/01/08 06:35:01;;;;;;;6.65;4.57;;;;;;;-145.06;0.00;60892.56;4842965;28;20308;-88
2022/01/08 06:37:40;;;;;;;8.40;5.13;;;;;;;2.78;0.00;60892.56;4844562;28;20463;-86
2022/01/08 06:40:19;;;;;;;9.65;5.55;;;;;;;2.77;0.00;60892.56;4847086;28;20069;-86
2022/01/08 06:42:58;;;;;;;5.20;4.37;;;;;;;2.77;0.00;60892.56;4848038;28;20033;-87
2022/01/08 06:45:37;;;;;;;7.35;4.63;;;;;;;2.77;0.00;60892.56;4843909;28;20795;-86
2022/01/08 06:48:16;;;;;;;9.15;5.47;;;;;;;-145.06;0.00;60892.56;4858614;28;20025;-86
2022/01/08 06:50:55;;;;;;;8.15;5.10;;;;;;;2.79;0.00;60892.56;4846430;28;20045;-87
2022/01/08 06:53:34;;;;;;;7.68;5.18;;;;;;;-145.06;0.00;60892.56;4843131;28;20518;-87
2022/01/08 06:56:13;;;;;;;7.65;5.10;;;;;;;2.89;0.00;60892.56;4843800;28;20037;-87
2022/01/08 06:58:52;;;;;;;5.43;3.95;;;;;;;21.08;0.00;60892.56;4845109;28;20033;-87
2022/01/08 07:01:31;;;;;;;11.50;6.00;;;;;;;-145.06;0.00;60892.56;4845318;28;20041;-87
2022/01/08 07:04:11;;;;;;;12.48;6.20;;;;;;;2.86;0.00;60892.56;4847248;28;20072;-87
2022/01/08 07:06:50;;;;;;;8.13;5.47;;;;;;;-145.06;0.00;60892.56;4847614;28;20108;-87
2022/01/08 07:09:29;;;;;;;9.48;4.32;;;;;;;2.89;0.00;60892.56;4845671;28;20033;-87
2022/01/08 07:12:07;;;;;;;7.20;5.07;;;;;;;-145.06;0.00;60892.56;4844573;28;20037;-87
2022/01/08 07:14:46;;;;;;;7.45;4.65;;;;;;;-145.06;0.00;60892.56;4846906;28;20116;-87
2022/01/08 07:17:25;;;;;;;7.07;4.28;;;;;;;-145.06;0.00;60892.56;4847007;28;20033;-88
2022/01/08 07:20:05;;;;;;;7.07;4.22;;;;;;;-145.06;0.00;60892.56;4846502;28;20045;-88
2022/01/08 07:22:44;;;;;;;;;;;;;;;-145.06;0.00;60892.56;4847161;28;20030;-86
2022/01/08 07:25:23;;;;;;;6.43;4.50;;;;;;;-145.06;0.00;60892.56;4878661;28;20303;-86
2022/01/08 07:28:02;;;;;;;5.67;3.83;;;;;;;-145.06;0.00;60892.56;4848263;28;20856;-87
2022/01/08 07:30:41;;;;;;;5.70;4.47;;;;;;;-145.06;0.00;60892.56;4847304;28;20272;-87
2022/01/08 07:33:20;;;;;;;7.83;4.37;;;;;;;-145.06;0.00;60892.56;4863960;28;20307;-87
2022/01/08 07:35:59;;;;;;;9.38;5.30;;;;;;;-145.06;0.00;60892.56;4846021;28;20280;-87
2022/01/08 07:38:38;;;;;;;7.63;4.70;;;;;;;-145.06;0.00;60892.56;4851651;28;20855;-87
2022/01/08 07:41:17;;;;;;;9.53;4.90;;;;;;;-145.06;0.00;60892.56;4850238;28;20299;-86
2022/01/08 07:43:56;;;;;;;6.78;4.25;;;;;;;-145.06;0.00;60892.56;4851424;28;20041;-88
2022/01/08 07:46:35;;;;;;;5.90;3.75;;;;;;;-145.06;0.00;60892.56;4845750;28;20033;-87
2022/01/08 07:49:14;;;;;;;7.15;4.20;;;;;;;-145.06;0.00;60892.56;4849020;28;20033;-86
2022/01/08 07:51:54;;;;;;;6.70;4.07;;;;;;;-145.06;0.00;60892.56;4845580;28;20427;-86
2022/01/08 07:54:33;;;;;;;6.68;4.32;;;;;;;-145.06;0.00;60892.56;4849959;28;20060;-86
2022/01/08 07:57:12;;;;;;;7.22;4.57;;;;;;;-145.06;0.00;60892.56;4845497;28;20042;-87
2022/01/08 07:59:51;;;;;;;8.70;4.95;;;;;;;-145.06;0.00;60892.56;4849226;28;20690;-87
2022/01/08 08:02:30;;;;;;;7.50;4.45;;;;;;;-145.06;0.00;60892.56;4849601;28;20045;-87
2022/01/08 08:05:09;;;;;;;6.70;4.77;;;;;;;-145.06;0.00;60892.56;4849796;28;20278;-87
2022/01/08 08:07:48;;;;;;;12.57;5.83;;;;;;;-145.06;0.00;60892.56;4849288;28;20263;-87
2022/01/08 08:10:29;;;;;;;10.07;5.50;;;;;;;-145.06;0.00;60892.56;4848089;28;20280;-85
2022/01/08 08:13:08;;;;;;;8.55;4.93;;;;;;;-145.06;0.00;60892.56;4849304;28;20060;-86
2022/01/08 08:15:48;;;;;;;8.90;5.25;;;;;;;-145.06;0.00;60892.56;4848193;28;20037;-87
2022/01/08 08:18:28;;;;;;;9.15;4.82;;;;;;;-145.06;0.00;60892.56;4846354;28;20041;-86
2022/01/08 08:21:07;;;;;;;10.10;5.13;;;;;;;-145.06;0.00;60892.56;4862287;28;20029;-85
2022/01/08 08:23:46;;;;;;;8.20;5.07;;;;;;;-145.06;0.00;60892.56;4848069;28;20276;-86
2022/01/08 08:26:25;;;;;;;10.07;6.00;;;;;;;-145.06;0.00;60892.56;4849553;28;20264;-85
2022/01/08 08:29:04;;;;;;;10.37;6.10;;;;;;;-145.06;0.00;60892.56;4847172;28;20037;-85
2022/01/08 08:31:43;;;;;;;9.57;4.50;;;;;;;-145.06;0.00;60892.56;4846888;28;20280;-86
2022/01/08 08:34:22;;;;;;;6.00;4.17;;;;;;;-145.06;0.00;60892.56;4862228;28;20065;-86
2022/01/08 08:37:01;;;;;;;8.30;4.30;;;;;;;-145.06;0.00;60892.56;4846720;28;20034;-86
2022/01/08 08:39:39;;;;;;;6.80;4.18;;;;;;;-145.06;0.00;60892.56;4848140;28;20491;-87
2022/01/08 08:42:19;;;;;;;7.57;4.82;;;;;;;-145.06;0.00;60892.56;4842921;28;20533;-86
2022/01/08 08:44:58;;;;;;;7.03;4.07;;;;;;;-145.06;0.00;60892.56;4843131;28;20129;-87
2022/01/08 08:47:39;;;;;;;6.73;3.77;;;;;;;-145.06;0.00;60892.56;4848007;28;20033;-87
2022/01/08 08:50:18;;;;;;;7.72;3.80;;;;;;;-145.06;0.00;60892.56;4847298;28;20041;-87
2022/01/08 08:52:57;;;;;;;7.25;4.22;;;;;;;-145.06;0.00;60892.56;4848465;28;20041;-88
2022/01/08 08:55:36;;;;;;;6.18;4.20;;;;;;;-145.06;0.00;60892.56;4846524;28;20041;-88
2022/01/08 08:58:15;;;;;;;6.43;3.67;;;;;;;-145.06;0.00;60892.56;4848795;28;20098;-87
2022/01/08 09:00:55;;;;;;;4.40;3.22;;;;;;;-145.06;0.00;60892.56;4864605;28;20064;-88
2022/01/08 09:03:34;;;;;;;6.07;3.40;;;;;;;-145.06;0.00;60892.56;4847397;28;20037;-88
2022/01/08 09:06:13;;;;;;;4.80;2.60;;;;;;;-145.06;0.00;60892.56;4846506;28;20164;-87
2022/01/08 09:08:53;;;;;;;5.72;3.42;;;;;;;-145.06;0.00;60892.56;4849856;28;20132;-88
2022/01/08 09:11:32;;;;;;;;;;;;;;;-145.06;0.00;60892.56;4860533;28;20116;-88
2022/01/08 09:14:11;;;;;;;3.47;2.35;;;;;;;-145.06;0.00;60892.56;4845633;28;19917;-88
2022/01/08 09:16:53;;;;;;;4.20;2.43;;;;;;;10.68;0.00;60892.56;4861248;28;20586;-87
2022/01/08 09:19:32;;;;;;;3.03;2.20;;;;;;;21.08;0.00;60892.56;4862286;28;20076;-88
2022/01/08 09:22:12;;;;;;;4.85;2.60;;;;;;;-145.06;0.00;60892.56;4847005;28;20041;-86
2022/01/08 09:24:53;;;;;;;4.28;1.95;;;;;;;-145.06;0.00;60892.56;4839540;28;20310;-88
2022/01/08 09:27:32;;;;;;;2.30;1.30;;;;;;;-145.06;0.00;60892.56;4843736;28;20123;-88
2022/01/08 09:30:11;;;;;;;2.58;1.98;;;;;;;-145.06;0.00;60892.56;4848763;28;20041;-87
2022/01/08 09:32:50;;;;;;;1.85;1.67;;;;;;;10.68;0.00;60892.56;4860739;28;20081;-88
2022/01/08 09:35:30;;;;;;;1.80;1.35;;;;;;;-145.06;0.00;60892.56;4847854;28;20136;-87
2022/01/08 09:38:08;;;;;;;1.42;1.20;;;;;;;-145.06;0.00;60892.56;4846393;28;20037;-87
2022/01/08 09:40:47;;;;;;;2.27;1.37;;;;;;;-145.06;0.00;60892.56;4845277;28;20068;-88
2022/01/08 09:43:26;;;;;;;2.57;1.50;;;;;;;-145.06;0.00;60892.56;4846805;28;20514;-87
2022/01/08 09:46:05;;;;;;;2.25;1.35;;;;;;;187.52;0.00;60892.56;4846043;28;20029;-87
2022/01/08 09:48:45;;;;;;;2.17;1.20;;;;;;;3.96;0.00;60892.56;4847050;28;20033;-87
2022/01/08 09:51:26;;;;;;;1.90;1.20;;;;;;;3.99;0.00;60892.56;4862217;28;20033;-88
2022/01/08 09:54:05;;;;;;;2.53;1.30;;;;;;;-145.06;0.00;60892.56;4850344;28;20037;-87
2022/01/08 09:56:44;;;;;;;2.57;1.47;;;;;;;-145.06;0.00;60892.56;4847323;28;20124;-88
2022/01/08 09:59:24;;;;;;;1.95;1.30;;;;;;;-145.06;0.00;60892.56;4844222;28;20041;-87
2022/01/08 10:02:04;;;;;;;1.50;1.27;;;;;;;-145.06;0.00;60892.56;4847313;28;20045;-86
2022/01/08 10:04:43;;;;;;;3.75;1.65;;;;;;;-145.06;0.00;60892.56;4846559;28;20033;-87
2022/01/08 10:07:24;;;;;;;2.67;1.43;;;;;;;-145.06;0.00;60892.56;4844720;28;20428;-86
2022/01/08 10:10:13;;;;;;;1.60;1.27;;;;;;;-145.06;0.00;60892.56;4841470;28;20041;-86
2022/01/08 10:12:57;;;;;;;1.92;1.58;;;;;;;-145.06;0.00;60892.56;4844547;28;20037;-87
2022/01/08 10:18:39;;;;;;;2.00;1.33;;;;;;;-145.06;0.00;60892.56;4847265;28;20037;-87
2022/01/08 10:21:20;;;;;;;2.40;1.30;;;;;;;-145.06;0.00;60892.56;4847417;28;20112;-86
2022/01/08 10:24:08;;;;;;;1.40;1.10;;;;;;;-145.06;0.00;60892.56;4856501;28;20510;-88
2022/01/08 10:26:49;;;;;;;2.20;1.30;;;;;;;-145.06;0.00;60892.56;4848171;28;20029;-86
2022/01/08 10:29:28;;;;;;;2.35;1.25;;;;;;;-145.06;0.00;60892.56;4845359;28;20547;-86
2022/01/08 10:32:07;;;;;;;2.07;0.97;;;;;;;-145.06;0.00;60892.56;4848137;28;20139;-85
2022/01/08 10:34:48;;;;;;;2.35;1.10;;;;;;;-145.06;0.00;60892.56;4846699;28;20030;-87
2022/01/08 10:37:27;;;;;;;1.27;0.82;;;;;;;10.68;0.00;60892.56;4844925;28;20676;-86
2022/01/08 10:40:06;;;;;;;1.00;0.60;;;;;;;-145.06;0.00;60892.56;4846557;28;20029;-87
2022/01/08 10:42:45;;;;;;;1.38;0.90;;;;;;;-145.06;0.00;60892.56;4846506;28;20794;-86
2022/01/08 10:45:25;;;;;;;0.82;0.73;;;;;;;-145.06;0.00;60892.56;4848623;28;20037;-86
2022/01/08 10:48:05;;;;;;;3.17;0.90;;;;;;;-145.06;0.00;60892.56;4846139;28;20041;-87
2022/01/08 10:50:44;;;;;;;1.67;0.90;;;;;;;-145.06;0.00;60892.56;4845032;28;20057;-86
2022/01/08 10:54:02;;;;;;;1.17;1.03;;;;;;;-145.06;0.00;60892.56;4843735;28;20033;-86
2022/01/08 10:56:48;;;;;;;2.80;1.08;;;;;;;-145.06;0.00;60892.56;4845337;28;20029;-86
2022/01/08 10:59:30;;;;;;;4.07;1.20;;;;;;;-145.06;0.00;60892.56;4855808;28;20033;-85
2022/01/08 11:02:14;;;;;;;1.63;1.10;;;;;;;-145.06;0.00;60892.56;4847202;28;20033;-86
2022/01/08 11:04:54;;;;;;;1.23;0.85;;;;;;;-145.06;0.00;60892.56;4846259;28;20030;-87
2022/01/08 11:07:34;;;;;;;1.98;0.80;;;;;;;-145.06;0.00;60892.56;4844137;28;20025;-86
2022/01/08 11:10:17;;;;;;;1.65;0.82;;;;;;;-145.06;0.00;60892.56;4842505;28;20435;-87
2022/01/08 11:12:56;;;;;;;1.40;0.93;;;;;;;-145.06;0.00;60892.56;4845895;28;20475;-87
2022/01/08 11:15:48;;;;;;;1.33;1.15;;;;;;;5.49;0.00;60892.56;4846154;28;20479;-86
2022/01/08 11:18:27;;;;;;;2.08;1.25;;;;;;;-145.06;0.00;60892.56;4843271;28;20041;-86
2022/01/08 11:21:06;;;;;;;2.05;1.30;;;;;;;-145.06;0.00;60892.56;4848702;28;20034;-86
2022/01/08 11:23:46;;;;;;;2.37;1.50;;;;;;;-145.06;0.00;60892.56;4845429;28;20029;-86
2022/01/08 11:26:27;;;;;;;2.28;1.38;;;;;;;10.68;0.00;60892.56;4847750;28;20264;-87
2022/01/08 11:29:09;;;;;;;3.00;1.50;;;;;;;-145.06;0.00;60892.56;4843499;28;20037;-87
2022/01/08 11:31:55;;;;;;;3.40;1.52;;;;;;;-145.06;0.00;60892.56;4844311;28;20042;-87
2022/01/08 11:34:37;;;;;;;1.33;1.20;;;;;;;-145.06;0.00;60892.56;4847515;28;20034;-86
2022/01/08 11:37:16;;;;;;;3.22;1.60;;;;;;;-145.06;0.00;60892.56;4847018;28;20037;-86
2022/01/08 11:39:57;;;;;;;3.20;1.40;;;;;;;-145.06;0.00;60892.56;4844699;28;20037;-87
2022/01/08 11:42:39;;;;;;;2.17;1.52;;;;;;;-145.06;0.00;60892.56;4848050;28;20503;-86
2022/01/08 11:45:28;;;;;;;2.30;1.40;;;;;;;5.08;0.00;60892.56;4845813;28;20635;-88
2022/01/08 11:48:10;;;;;;;2.83;1.42;;;;;;;-145.06;0.00;60892.56;4858960;28;20037;-87
2022/01/08 11:50:55;;;;;;;2.15;1.70;;;;;;;5.11;0.00;60892.56;4842552;28;20025;-88
2022/01/08 11:53:49;;;;;;;2.88;1.40;;;;;;;5.12;0.00;60892.56;4844522;28;20029;-88
2022/01/08 11:56:28;;;;;;;1.70;1.30;;;;;;;-145.06;0.00;60892.56;4846763;28;20037;-88
2022/01/08 11:59:14;;;;;;;2.30;1.30;;;;;;;-145.06;0.00;60892.56;4844894;28;21341;-87
2022/01/08 12:02:02;;;;;;;2.25;1.50;;;;;;;5.49;0.00;60892.56;4845288;28;20037;-87
2022/01/08 12:04:51;;;;;;;2.42;1.45;;;;;;;5.18;0.00;60892.56;4843707;28;20026;-87
2022/01/08 12:07:40;;;;;;;1.60;1.30;;;;;;;-145.06;0.00;60892.56;4842931;28;20478;-87
2022/01/08 12:10:30;;;;;;;2.35;1.35;;;;;;;10.68;0.00;60892.56;4843390;28;20041;-87
2022/01/08 12:13:09;;;;;;;1.55;1.20;;;;;;;10.68;0.00;60892.56;4859796;28;20052;-87
2022/01/08 12:15:50;;;;;;;1.60;1.20;;;;;;;-145.06;0.00;60892.56;4848337;28;20037;-88
2022/01/08 12:18:52;;;;;;;1.70;1.00;;;;;;;-145.06;0.00;60892.56;4852467;28;20033;-86
2022/01/08 12:21:39;;;;;;;2.13;1.30;;;;;;;5.31;0.00;60892.56;4864753;28;20432;-88
2022/01/08 12:24:27;;;;;;;2.00;1.33;;;;;;;5.30;0.00;60892.56;4853439;28;20037;-87
2022/01/08 12:27:35;;;;;;;2.17;1.40;;;;;;;5.30;0.00;60892.56;4849568;28;20025;-89
2022/01/08 12:30:17;;;;;;;0.95;0.85;;;;;;;5.31;0.00;60892.56;4848357;28;20124;-88
2022/01/08 12:33:18;;;;;;;2.25;1.23;;;;;;;-145.06;0.00;60892.56;4863482;28;20025;-87
2022/01/08 12:36:25;;;;;;;1.27;1.10;;;;;;;-145.06;0.00;60892.56;4863130;28;20025;-88
2022/01/08 12:39:04;;;;;;;2.25;1.10;;;;;;;5.42;0.00;60892.56;4848871;28;20033;-88
2022/01/08 12:41:43;;;;;;;1.40;1.10;;;;;;;5.41;0.00;60892.56;4850524;28;20029;-88
2022/01/08 12:44:27;;;;;;;1.05;0.95;;;;;;;5.43;0.00;60892.56;4850519;28;20033;-88
2022/01/08 12:47:06;;;;;;;2.85;1.48;;;;;;;10.68;0.00;60892.56;4851072;28;20033;-88
2022/01/08 12:50:23;;;;;;;2.05;1.30;;;;;;;5.46;0.00;60892.56;4849851;28;20033;-88
2022/01/08 12:53:05;;;;;;;1.70;1.10;;;;;;;5.49;0.00;60892.56;4862144;28;20037;-88
2022/01/08 12:55:53;;;;;;;2.42;1.10;;;;;;;5.46;0.00;60892.56;4847849;28;20032;-88
2022/01/08 12:58:35;;;;;;;1.77;1.20;;;;;;;5.45;0.00;60892.56;4847436;28;20033;-89